createdAt,value
2019-05-10T00:02:54.839Z,99508.20
2019-05-10T00:08:16.417Z,99512.81
2019-05-10T00:13:27.657Z,99522.81
2019-05-10T00:18:31.167Z,99527.48
2019-05-10T00:23:34.617Z,99526.27
2019-05-10T00:28:38.208Z,99529.24
2019-05-10T00:33:41.652Z,99521.95
2019-05-10T00:38:45.136Z,99524.27
2019-05-10T00:43:48.586Z,99532.48
2019-05-10T00:48:52.044Z,99536.32
2019-05-10T00:53:55.511Z,99536.71
2019-05-10T00:58:58.963Z,99539.62
2019-05-10T01:04:02.424Z,99540.13
2019-05-10T01:09:06.724Z,99544.05
2019-05-10T01:14:10.244Z,99547.49
2019-05-10T01:19:13.896Z,99536.34
2019-05-10T01:24:17.538Z,99547.12
2019-05-10T01:29:21.033Z,99551.72
2019-05-10T01:34:24.495Z,99549.77
2019-05-10T01:39:27.980Z,99555.14
2019-05-10T01:44:31.427Z,99556.40
2019-05-10T01:49:34.855Z,99561.88
2019-05-10T01:54:41.213Z,99563.38
2019-05-10T01:59:44.649Z,99568.86
2019-05-10T02:04:48.182Z,99567.09
2019-05-10T02:09:51.645Z,99577.38
2019-05-10T02:14:55.416Z,99570.91
2019-05-10T02:19:58.927Z,99589.89
2019-05-10T02:25:02.362Z,99592.28
2019-05-10T02:30:08.671Z,99595.20
2019-05-10T02:35:12.314Z,99600.14
2019-05-10T02:40:15.896Z,99606.66
2019-05-10T02:45:20.711Z,99605.13
2019-05-10T02:50:24.224Z,99615.31
2019-05-10T02:55:27.982Z,99613.41
2019-05-10T03:00:43.768Z,99618.27
2019-05-10T03:05:49.195Z,99623.48
2019-05-10T03:10:58.190Z,99622.69
2019-05-10T03:16:04.869Z,99629.28
2019-05-10T03:21:10.368Z,99635.96
2019-05-10T03:26:13.812Z,99632.76
2019-05-10T03:31:17.397Z,99635.36
2019-05-10T03:36:20.873Z,99634.53
2019-05-10T03:41:24.559Z,99639.62
2019-05-10T03:46:27.978Z,99640.02
2019-05-10T03:51:32.338Z,99645.74
2019-05-10T03:56:35.824Z,99643.20
2019-05-10T04:01:39.255Z,99645.69
2019-05-10T04:06:42.744Z,99647.31
2019-05-10T04:11:50.434Z,99648.52
2019-05-10T04:42:48.206Z,99657.39
2019-05-10T04:52:17.542Z,99669.03
2019-05-10T04:57:22.347Z,99674.98
2019-05-10T05:02:34.833Z,99673.40
2019-05-10T05:07:46.246Z,99675.83
2019-05-10T05:12:51.387Z,99676.23
2019-05-10T05:17:55.040Z,99681.39
2019-05-10T05:23:08.857Z,99684.55
2019-05-10T05:28:11.465Z,99687.97
2019-05-10T05:33:24.133Z,99696.24
2019-05-10T05:38:49.589Z,99699.07
2019-05-10T05:44:26.094Z,99704.23
2019-05-10T05:49:29.752Z,99714.77
2019-05-10T05:54:37.143Z,99722.38
2019-05-10T05:59:48.959Z,99724.75
2019-05-10T06:04:57.009Z,99733.53
2019-05-10T06:10:10.088Z,99746.47
2019-05-10T06:15:14.702Z,99751.02
2019-05-10T06:20:21.921Z,99764.27
2019-05-10T06:25:39.441Z,99767.00
2019-05-10T06:30:33.205Z,99769.43
2019-05-10T06:35:38.266Z,99779.36
2019-05-10T06:40:47.244Z,99784.95
2019-05-10T06:45:52.495Z,99799.33
2019-05-10T06:50:52.894Z,99799.60
2019-05-10T06:55:56.333Z,99808.16
2019-05-10T07:00:59.854Z,99818.02
2019-05-10T07:06:03.360Z,99828.39
2019-05-10T07:11:06.963Z,99841.52
2019-05-10T07:16:14.984Z,99848.22
2019-05-10T07:21:16.347Z,99853.20
2019-05-10T07:26:24.812Z,99850.47
2019-05-10T07:31:26.621Z,99863.16
2019-05-10T07:36:30.993Z,99865.52
2019-05-10T07:41:35.228Z,99875.20
2019-05-10T07:46:40.082Z,99884.16
2019-05-10T07:51:43.879Z,99895.34
2019-05-10T07:56:47.955Z,99898.97
2019-05-10T08:01:51.408Z,99902.52
2019-05-10T08:06:54.829Z,99909.58
2019-05-10T08:12:03.271Z,99921.99
2019-05-10T08:17:06.237Z,99936.02
2019-05-10T08:22:09.357Z,99938.58
2019-05-10T08:27:14.914Z,99947.09
2019-05-10T08:32:19.386Z,99958.18
2019-05-10T08:37:33.088Z,99966.88
2019-05-10T08:42:40.937Z,99977.94
2019-05-10T08:47:33.533Z,99988.46
2019-05-10T08:52:37.035Z,99988.81
2019-05-10T08:57:44.381Z,100004.75
2019-05-10T09:02:48.360Z,100012.09
2019-05-10T09:07:52.169Z,100012.70
2019-05-10T09:12:58.079Z,100015.91
2019-05-10T09:18:04.332Z,100016.16
2019-05-10T09:23:08.743Z,100018.81
2019-05-10T09:28:16.495Z,100027.83
2019-05-10T09:33:16.199Z,100036.41
2019-05-10T09:38:21.960Z,100036.24
2019-05-10T09:43:24.948Z,100039.86
2019-05-10T09:48:28.357Z,100046.22
2019-05-10T09:53:31.786Z,100041.71
2019-05-10T09:58:35.207Z,100056.93
2019-05-10T10:03:43.265Z,100066.81
2019-05-10T10:08:51.239Z,100076.40
2019-05-10T10:13:58.573Z,100083.77
2019-05-10T10:18:54.433Z,100091.97
2019-05-10T10:24:00.391Z,100117.87
2019-05-10T10:29:03.015Z,100124.87
2019-05-10T10:34:07.630Z,100119.81
2019-05-10T10:39:11.272Z,100124.87
2019-05-10T10:44:14.791Z,100126.57
2019-05-10T10:49:23.077Z,100125.06
2019-05-10T10:54:28.132Z,100135.98
2019-05-10T10:59:28.511Z,100122.58
2019-05-10T11:04:31.942Z,100141.07
2019-05-10T11:09:37.082Z,100140.46
2019-05-10T11:14:45.209Z,100146.66
2019-05-10T11:19:45.692Z,100141.19
2019-05-10T11:24:51.780Z,100131.14
2019-05-10T11:29:55.225Z,100141.83
2019-05-10T11:34:58.726Z,100137.56
2019-05-10T11:40:02.224Z,100142.52
2019-05-10T11:45:07.936Z,100145.34
2019-05-10T11:50:26.558Z,100146.58
2019-05-10T11:55:17.607Z,100141.38
2019-05-10T12:00:28.433Z,100151.34
2019-05-10T12:05:26.955Z,100154.45
2019-05-10T12:10:32.001Z,100144.05
2019-05-10T12:15:35.690Z,100161.23
2019-05-10T12:20:54.435Z,100157.11
2019-05-10T12:25:58.801Z,100161.11
2019-05-10T12:30:51.201Z,100171.36
2019-05-10T12:35:54.865Z,100178.75
2019-05-10T12:40:58.307Z,100183.25
2019-05-10T12:46:01.743Z,100183.54
2019-05-10T12:51:11.522Z,100182.81
2019-05-10T12:56:10.775Z,100192.30
2019-05-10T13:01:14.208Z,100192.02
2019-05-10T13:06:19.610Z,100183.98
2019-05-10T13:11:25.461Z,100185.94
2019-05-10T13:16:28.015Z,100200.88
2019-05-10T13:21:31.524Z,100210.41
2019-05-10T13:26:34.937Z,100215.27
2019-05-10T13:31:42.890Z,100221.34
2019-05-10T13:36:43.567Z,100222.19
2019-05-10T13:41:47.023Z,100224.12
2019-05-10T13:46:50.440Z,100237.20
2019-05-10T13:51:53.874Z,100237.95
2019-05-10T13:56:57.302Z,100239.20
2019-05-10T14:02:00.839Z,100234.69
2019-05-10T14:07:04.343Z,100237.56
2019-05-10T14:12:07.853Z,100244.78
2019-05-10T14:17:11.266Z,100245.72
2019-05-10T14:22:14.715Z,100242.95
2019-05-10T14:27:18.161Z,100254.05
2019-05-10T14:32:21.585Z,100247.37
2019-05-10T14:37:25.031Z,100260.41
2019-05-10T14:42:31.092Z,100255.78
2019-05-10T14:47:33.878Z,100261.23
2019-05-10T14:52:37.299Z,100258.70
2019-05-10T14:57:40.786Z,100260.05
2019-05-10T15:02:44.182Z,100259.15
2019-05-10T15:07:50.960Z,100260.48
2019-05-10T15:12:52.794Z,100271.23
2019-05-10T15:18:02.014Z,100276.88
2019-05-10T15:23:01.421Z,100273.34
2019-05-10T15:28:04.907Z,100280.42
2019-05-10T15:33:08.373Z,100286.98
2019-05-10T15:38:11.804Z,100289.78
2019-05-10T15:43:17.217Z,100284.68
2019-05-10T15:48:20.397Z,100295.77
2019-05-10T15:53:27.195Z,100290.77
2019-05-10T15:58:36.642Z,100291.37
2019-05-10T16:03:35.773Z,100292.49
2019-05-10T16:08:39.200Z,100278.56
2019-05-10T16:13:42.624Z,100287.40
2019-05-10T16:18:46.121Z,100284.33
2019-05-10T16:23:49.553Z,100289.51
2019-05-10T16:29:01.058Z,100286.62
2019-05-10T16:33:58.150Z,100299.08
2019-05-10T16:39:02.116Z,100297.67
2019-05-10T16:44:05.787Z,100309.59
2019-05-10T16:49:09.989Z,100298.67
2019-05-10T16:54:24.239Z,100296.03
2019-05-10T16:59:24.263Z,100298.02
2019-05-10T17:04:24.933Z,100292.02
2019-05-10T17:09:29.241Z,100290.49
2019-05-10T17:14:32.683Z,100294.11
2019-05-10T17:19:36.248Z,100295.00
2019-05-10T17:24:39.699Z,100298.53
2019-05-10T17:29:44.492Z,100299.44
2019-05-10T17:34:48.377Z,100297.93
2019-05-10T17:39:53.679Z,100306.36
2019-05-10T17:45:22.145Z,100323.71
2019-05-10T17:50:25.599Z,100326.39
2019-05-10T17:55:29.812Z,100309.64
2019-05-10T18:00:33.295Z,100315.82
2019-05-10T18:05:41.230Z,100312.94
2019-05-10T18:10:41.925Z,100313.91
2019-05-10T18:15:47.100Z,100312.33
2019-05-10T18:20:50.528Z,100300.12
2019-05-10T18:25:58.454Z,100288.52
2019-05-10T18:30:59.213Z,100283.25
2019-05-10T18:36:02.648Z,100308.92
2019-05-10T18:41:10.060Z,100321.41
2019-05-10T18:46:11.287Z,100322.30
2019-05-10T18:51:18.095Z,100327.69
2019-05-10T18:56:25.221Z,100333.88
2019-05-10T19:01:25.123Z,100332.39
2019-05-10T19:06:31.326Z,100326.42
2019-05-10T19:11:39.058Z,100330.09
2019-05-10T19:16:39.679Z,100339.86
2019-05-10T19:21:43.105Z,100333.98
2019-05-10T19:26:46.547Z,100324.34
2019-05-10T19:31:49.983Z,100331.58
2019-05-10T19:36:53.439Z,100344.65
2019-05-10T19:42:03.644Z,100365.99
2019-05-10T19:47:02.000Z,100372.53
2019-05-10T19:52:05.485Z,100378.19
2019-05-10T19:57:16.002Z,100383.23
2019-05-10T20:02:14.068Z,100388.37
2019-05-10T20:07:17.522Z,100387.11
2019-05-10T20:12:20.987Z,100374.63
2019-05-10T20:17:24.537Z,100375.45
2019-05-10T20:22:28.163Z,100377.21
2019-05-10T20:27:31.688Z,100393.88
2019-05-10T20:32:35.137Z,100393.79
2019-05-10T20:37:38.648Z,100384.37
2019-05-10T20:42:42.057Z,100385.41
2019-05-10T20:47:45.493Z,100407.91
2019-05-10T20:52:48.934Z,100412.23
2019-05-10T20:57:52.385Z,100401.83
2019-05-10T21:02:55.825Z,100401.70
2019-05-10T21:07:59.272Z,100392.66
2019-05-10T21:13:02.710Z,100391.70
2019-05-10T21:18:06.181Z,100382.03
2019-05-10T21:23:09.607Z,100374.49
2019-05-10T21:28:13.046Z,100390.10
2019-05-10T21:33:16.466Z,100394.05
2019-05-10T21:38:31.858Z,100389.39
2019-05-10T21:43:25.084Z,100382.39
2019-05-10T21:48:28.654Z,100384.86
2019-05-10T21:53:32.093Z,100395.02
2019-05-10T21:58:35.534Z,100385.00
2019-05-10T22:03:38.967Z,100378.48
2019-05-10T22:08:49.292Z,100387.01
2019-05-10T22:13:47.554Z,100383.32
2019-05-10T22:18:52.639Z,100379.50
2019-05-10T22:23:56.273Z,100362.03
2019-05-10T22:28:59.734Z,100364.41
2019-05-10T22:34:03.200Z,100357.77
2019-05-10T22:39:07.827Z,100351.38
2019-05-10T22:44:11.510Z,100356.45
2019-05-10T22:49:15.010Z,100353.41
2019-05-10T22:54:18.463Z,100352.45
2019-05-10T22:59:21.900Z,100345.81
2019-05-10T23:04:25.345Z,100340.88
2019-05-10T23:09:29.501Z,100338.00
2019-05-10T23:14:32.944Z,100330.81
2019-05-10T23:19:36.454Z,100329.60
2019-05-10T23:24:39.889Z,100343.07
2019-05-10T23:29:43.318Z,100324.39
2019-05-10T23:34:46.748Z,100330.05
2019-05-10T23:39:50.191Z,100329.19
2019-05-10T23:44:53.630Z,100310.98
2019-05-10T23:49:57.076Z,100298.89
2019-05-10T23:55:00.528Z,100292.34
